LKPR/PRG METAR and TAF weather

Enter ICAO airport designator
Station Type Date Time Source
LKPR METAR 2021/04/13 07:00 UTC NOAA

LKPR 130700Z 33010KT 9999 FEW014 03/M01 Q1027 NOSIG


Station Type Date Time Source
LKPR Decoded METAR 2021/04/13 07:00 UTC NOAA

Praha / Ruzyne, Czech Republic (LKPR) 50-06N 014-15E 365M
Apr 13, 2021 - 03:00 AM EDT / 2021.04.13 0700 UTC
Wind: from the NNW (330 degrees) at 12 MPH (10 KT):0
Visibility: greater than 7 mile(s):0
Sky conditions: mostly clear
Temperature: 37 F (3 C)
Dew Point: 30 F (-1 C)
Relative Humidity: 74%
Pressure (altimeter): 30.33 in. Hg (1027 hPa)
ob: LKPR 130700Z 33010KT 9999 FEW014 03/M01 Q1027 NOSIG
cycle: 7

Station Type Date Time Source
LKPR TAF 2021/04/13 06:08 UTC NOAA

TAF LKPR 130500Z 1306/1412 33008KT CAVOK
TEMPO 1309/1316 35016KT -SHRA BKN033
TEMPO 1408/1412 35014G24KT -SHRA BKN030

Example: see airport list